sensor_id;sensor_type;location;lat;lon;timestamp;pressure;altitude;pressure_sealevel;temperature;humidity
52591;BME280;38483;42.620;25.394;2023-02-13T00:00:30;98738.56;;;1.41;71.85
52591;BME280;38483;42.620;25.394;2023-02-13T00:02:57;98787.81;;;1.35;71.44
52591;BME280;38483;42.620;25.394;2023-02-13T00:05:24;98789.41;;;1.30;72.96
52591;BME280;38483;42.620;25.394;2023-02-13T00:07:51;98791.06;;;1.27;71.91
52591;BME280;38483;42.620;25.394;2023-02-13T00:10:18;98788.50;;;1.25;71.98
52591;BME280;38483;42.620;25.394;2023-02-13T00:12:44;98792.47;;;1.11;73.10
52591;BME280;38483;42.620;25.394;2023-02-13T00:15:11;98790.94;;;1.19;73.58
52591;BME280;38483;42.620;25.394;2023-02-13T00:17:38;98772.19;;;1.17;73.11
52591;BME280;38483;42.620;25.394;2023-02-13T00:20:09;98794.28;;;1.18;72.52
52591;BME280;38483;42.620;25.394;2023-02-13T00:22:37;98796.91;;;1.21;72.75
52591;BME280;38483;42.620;25.394;2023-02-13T00:25:05;98790.84;;;1.16;72.71
52591;BME280;38483;42.620;25.394;2023-02-13T00:27:33;98782.38;;;1.17;72.42
52591;BME280;38483;42.620;25.394;2023-02-13T00:30:01;98798.91;;;1.37;72.15
52591;BME280;38483;42.620;25.394;2023-02-13T00:32:30;98800.63;;;1.38;71.54
52591;BME280;38483;42.620;25.394;2023-02-13T00:34:57;98800.50;;;1.32;72.50
52591;BME280;38483;42.620;25.394;2023-02-13T00:37:24;98789.63;;;1.42;71.52
52591;BME280;38483;42.620;25.394;2023-02-13T00:39:52;98804.78;;;1.32;71.37
52591;BME280;38483;42.620;25.394;2023-02-13T00:42:19;98793.75;;;1.34;71.97
52591;BME280;38483;42.620;25.394;2023-02-13T00:44:49;98786.47;;;1.09;72.97
52591;BME280;38483;42.620;25.394;2023-02-13T00:47:16;98802.91;;;1.23;72.50
52591;BME280;38483;42.620;25.394;2023-02-13T00:49:43;98800.91;;;1.09;71.27
52591;BME280;38483;42.620;25.394;2023-02-13T00:52:10;98799.53;;;0.82;73.08
52591;BME280;38483;42.620;25.394;2023-02-13T00:54:38;98802.03;;;0.81;73.74
52591;BME280;38483;42.620;25.394;2023-02-13T00:57:05;98804.38;;;0.70;73.36
52591;BME280;38483;42.620;25.394;2023-02-13T00:59:31;98799.44;;;0.78;73.35
52591;BME280;38483;42.620;25.394;2023-02-13T01:01:59;98816.31;;;0.71;74.71
52591;BME280;38483;42.620;25.394;2023-02-13T01:04:26;98801.53;;;0.57;75.04
52591;BME280;38483;42.620;25.394;2023-02-13T01:06:56;98792.69;;;0.41;74.43
52591;BME280;38483;42.620;25.394;2023-02-13T01:09:23;98803.69;;;0.39;75.36
52591;BME280;38483;42.620;25.394;2023-02-13T01:11:51;98808.03;;;0.43;76.29
52591;BME280;38483;42.620;25.394;2023-02-13T01:14:18;98792.59;;;0.37;76.36
52591;BME280;38483;42.620;25.394;2023-02-13T01:16:47;98797.88;;;0.46;76.23
52591;BME280;38483;42.620;25.394;2023-02-13T01:19:14;98790.09;;;0.40;75.61
52591;BME280;38483;42.620;25.394;2023-02-13T01:21:42;98798.72;;;0.45;76.13
52591;BME280;38483;42.620;25.394;2023-02-13T01:24:09;98805.34;;;0.37;75.65
52591;BME280;38483;42.620;25.394;2023-02-13T01:26:35;98808.81;;;0.40;76.15
52591;BME280;38483;42.620;25.394;2023-02-13T01:29:02;98798.63;;;0.40;76.15
52591;BME280;38483;42.620;25.394;2023-02-13T01:31:29;98794.41;;;0.41;75.56
52591;BME280;38483;42.620;25.394;2023-02-13T01:33:57;98801.78;;;0.67;75.91
52591;BME280;38483;42.620;25.394;2023-02-13T01:36:25;98802.81;;;0.77;75.43
52591;BME280;38483;42.620;25.394;2023-02-13T01:38:54;98803.69;;;0.79;74.26
52591;BME280;38483;42.620;25.394;2023-02-13T01:41:24;98802.16;;;0.86;73.92
52591;BME280;38483;42.620;25.394;2023-02-13T01:43:55;98807.94;;;0.78;74.44
52591;BME280;38483;42.620;25.394;2023-02-13T01:46:29;98823.06;;;0.69;74.21
52591;BME280;38483;42.620;25.394;2023-02-13T01:49:11;98823.16;;;0.74;74.39
52591;BME280;38483;42.620;25.394;2023-02-13T01:51:39;98826.41;;;0.67;73.39
52591;BME280;38483;42.620;25.394;2023-02-13T01:54:14;98816.88;;;0.60;74.96
52591;BME280;38483;42.620;25.394;2023-02-13T01:56:50;98819.59;;;0.66;73.40
52591;BME280;38483;42.620;25.394;2023-02-13T01:59:25;98801.66;;;0.63;74.21
52591;BME280;38483;42.620;25.394;2023-02-13T02:01:54;98816.81;;;0.55;74.23
52591;BME280;38483;42.620;25.394;2023-02-13T02:04:28;98790.97;;;0.40;74.43
52591;BME280;38483;42.620;25.394;2023-02-13T02:07:02;98809.91;;;0.51;74.24
52591;BME280;38483;42.620;25.394;2023-02-13T02:09:35;98823.59;;;0.55;74.74
52591;BME280;38483;42.620;25.394;2023-02-13T02:12:13;98830.72;;;0.71;74.20
52591;BME280;38483;42.620;25.394;2023-02-13T02:14:43;98822.28;;;0.72;73.87
52591;BME280;38483;42.620;25.394;2023-02-13T02:17:11;98818.81;;;0.70;73.07
52591;BME280;38483;42.620;25.394;2023-02-13T02:36:48;98819.00;;;0.05;74.35
52591;BME280;38483;42.620;25.394;2023-02-13T02:42:07;98828.59;;;0.15;75.77
52591;BME280;38483;42.620;25.394;2023-02-13T02:44:49;98837.94;;;0.14;75.67
52591;BME280;38483;42.620;25.394;2023-02-13T02:47:41;98823.19;;;0.03;74.27
52591;BME280;38483;42.620;25.394;2023-02-13T02:50:44;98830.06;;;0.05;73.38
52591;BME280;38483;42.620;25.394;2023-02-13T02:56:10;98835.44;;;-0.19;75.53
52591;BME280;38483;42.620;25.394;2023-02-13T02:58:44;98828.75;;;-0.14;75.53
52591;BME280;38483;42.620;25.394;2023-02-13T03:01:33;98816.94;;;-0.10;75.03
52591;BME280;38483;42.620;25.394;2023-02-13T03:04:25;98836.69;;;-0.02;74.93
52591;BME280;38483;42.620;25.394;2023-02-13T03:07:16;98836.84;;;0.05;74.57
52591;BME280;38483;42.620;25.394;2023-02-13T03:09:50;98839.44;;;0.06;74.81
52591;BME280;38483;42.620;25.394;2023-02-13T03:12:45;98834.38;;;0.08;74.47
52591;BME280;38483;42.620;25.394;2023-02-13T03:15:34;98835.78;;;-0.04;74.57
52591;BME280;38483;42.620;25.394;2023-02-13T03:18:01;98833.84;;;-0.14;74.82
52591;BME280;38483;42.620;25.394;2023-02-13T03:21:08;98824.41;;;-0.18;74.35
52591;BME280;38483;42.620;25.394;2023-02-13T03:26:31;98835.78;;;-0.38;75.50
52591;BME280;38483;42.620;25.394;2023-02-13T03:34:31;98850.06;;;-0.43;76.54
52591;BME280;38483;42.620;25.394;2023-02-13T03:37:28;98836.25;;;-0.52;75.28
52591;BME280;38483;42.620;25.394;2023-02-13T03:40:20;98829.94;;;-0.66;76.02
52591;BME280;38483;42.620;25.394;2023-02-13T03:42:53;98844.81;;;-0.49;76.52
52591;BME280;38483;42.620;25.394;2023-02-13T03:45:31;98846.59;;;-0.45;75.80
52591;BME280;38483;42.620;25.394;2023-02-13T03:51:11;98848.25;;;-0.47;76.29
52591;BME280;38483;42.620;25.394;2023-02-13T03:53:41;98842.06;;;-0.56;75.71
52591;BME280;38483;42.620;25.394;2023-02-13T03:56:13;98841.19;;;-0.57;76.44
52591;BME280;38483;42.620;25.394;2023-02-13T03:59:01;98841.31;;;-0.54;75.74
52591;BME280;38483;42.620;25.394;2023-02-13T04:01:49;98839.16;;;-0.70;76.14
52591;BME280;38483;42.620;25.394;2023-02-13T04:04:34;98841.63;;;-0.73;76.38
52591;BME280;38483;42.620;25.394;2023-02-13T04:07:09;98841.00;;;-0.64;75.79
52591;BME280;38483;42.620;25.394;2023-02-13T04:09:40;98845.78;;;-0.76;75.95
52591;BME280;38483;42.620;25.394;2023-02-13T04:12:15;98845.72;;;-0.78;76.26
52591;BME280;38483;42.620;25.394;2023-02-13T04:14:57;98838.81;;;-0.82;75.76
52591;BME280;38483;42.620;25.394;2023-02-13T04:17:30;98852.69;;;-0.71;75.17
52591;BME280;38483;42.620;25.394;2023-02-13T04:19:59;98828.31;;;-0.94;75.69
52591;BME280;38483;42.620;25.394;2023-02-13T04:22:26;98859.25;;;-0.79;75.84
52591;BME280;38483;42.620;25.394;2023-02-13T04:24:53;98867.63;;;-0.83;76.05
52591;BME280;38483;42.620;25.394;2023-02-13T04:27:20;98860.28;;;-0.72;75.82
52591;BME280;38483;42.620;25.394;2023-02-13T04:29:47;98867.22;;;-0.67;75.20
52591;BME280;38483;42.620;25.394;2023-02-13T04:32:14;98874.28;;;-0.57;75.49
52591;BME280;38483;42.620;25.394;2023-02-13T04:34:43;98870.03;;;-0.58;76.28
52591;BME280;38483;42.620;25.394;2023-02-13T04:37:09;98868.44;;;-0.53;75.01
52591;BME280;38483;42.620;25.394;2023-02-13T04:39:37;98868.31;;;-0.57;75.03
52591;BME280;38483;42.620;25.394;2023-02-13T04:42:04;98869.88;;;-0.64;75.07
52591;BME280;38483;42.620;25.394;2023-02-13T04:44:31;98861.94;;;-0.74;74.94
52591;BME280;38483;42.620;25.394;2023-02-13T04:46:58;98831.53;;;-1.01;74.04
52591;BME280;38483;42.620;25.394;2023-02-13T04:49:25;98875.97;;;-0.87;74.48
52591;BME280;38483;42.620;25.394;2023-02-13T04:51:51;98877.63;;;-0.89;74.40
52591;BME280;38483;42.620;25.394;2023-02-13T04:54:18;98871.28;;;-1.03;75.43
52591;BME280;38483;42.620;25.394;2023-02-13T04:56:45;98881.63;;;-0.97;74.82
52591;BME280;38483;42.620;25.394;2023-02-13T04:59:12;98881.47;;;-1.03;75.62
52591;BME280;38483;42.620;25.394;2023-02-13T05:01:39;98889.09;;;-1.03;75.18
52591;BME280;38483;42.620;25.394;2023-02-13T05:04:06;98871.22;;;-1.05;76.17
52591;BME280;38483;42.620;25.394;2023-02-13T05:06:33;98885.25;;;-0.89;75.33
52591;BME280;38483;42.620;25.394;2023-02-13T05:09:00;98878.53;;;-0.87;75.56
52591;BME280;38483;42.620;25.394;2023-02-13T05:11:27;98889.59;;;-0.85;74.86
52591;BME280;38483;42.620;25.394;2023-02-13T05:13:54;98898.94;;;-0.84;75.31
52591;BME280;38483;42.620;25.394;2023-02-13T05:16:21;98889.66;;;-0.82;74.77
52591;BME280;38483;42.620;25.394;2023-02-13T05:18:48;98893.66;;;-0.92;74.03
52591;BME280;38483;42.620;25.394;2023-02-13T05:21:15;98883.72;;;-1.12;74.13
52591;BME280;38483;42.620;25.394;2023-02-13T05:24:01;98874.72;;;-1.29;75.62
52591;BME280;38483;42.620;25.394;2023-02-13T05:26:28;98892.16;;;-1.13;75.51
52591;BME280;38483;42.620;25.394;2023-02-13T05:28:54;98895.81;;;-1.05;75.77
52591;BME280;38483;42.620;25.394;2023-02-13T05:31:40;98899.66;;;-0.88;75.38
52591;BME280;38483;42.620;25.394;2023-02-13T05:34:07;98905.19;;;-0.73;75.24
52591;BME280;38483;42.620;25.394;2023-02-13T05:36:34;98905.09;;;-0.76;75.30
52591;BME280;38483;42.620;25.394;2023-02-13T05:39:01;98905.09;;;-0.76;75.52
52591;BME280;38483;42.620;25.394;2023-02-13T05:41:28;98904.63;;;-0.93;75.04
52591;BME280;38483;42.620;25.394;2023-02-13T05:43:55;98910.53;;;-0.94;75.22
52591;BME280;38483;42.620;25.394;2023-02-13T05:46:23;98908.72;;;-0.98;75.38
52591;BME280;38483;42.620;25.394;2023-02-13T05:48:51;98897.41;;;-1.35;76.49
52591;BME280;38483;42.620;25.394;2023-02-13T05:51:22;98897.66;;;-1.28;76.07
52591;BME280;38483;42.620;25.394;2023-02-13T05:53:49;98905.41;;;-1.23;76.39
52591;BME280;38483;42.620;25.394;2023-02-13T05:56:16;98893.59;;;-1.21;76.46
52591;BME280;38483;42.620;25.394;2023-02-13T05:58:42;98906.19;;;-1.26;76.80
52591;BME280;38483;42.620;25.394;2023-02-13T06:01:11;98903.69;;;-0.96;77.23
52591;BME280;38483;42.620;25.394;2023-02-13T06:03:38;98889.50;;;-0.88;75.59
52591;BME280;38483;42.620;25.394;2023-02-13T06:06:08;98916.56;;;-0.90;74.88
52591;BME280;38483;42.620;25.394;2023-02-13T06:08:35;98900.75;;;-0.80;75.42
52591;BME280;38483;42.620;25.394;2023-02-13T06:11:02;98907.75;;;-0.73;75.43
52591;BME280;38483;42.620;25.394;2023-02-13T06:13:30;98890.84;;;-0.71;74.70
52591;BME280;38483;42.620;25.394;2023-02-13T06:15:57;98892.06;;;-0.58;74.99
52591;BME280;38483;42.620;25.394;2023-02-13T06:18:24;98913.53;;;-0.47;75.50
52591;BME280;38483;42.620;25.394;2023-02-13T06:20:51;98905.06;;;-0.48;76.34
52591;BME280;38483;42.620;25.394;2023-02-13T06:23:18;98908.25;;;-0.24;75.54
52591;BME280;38483;42.620;25.394;2023-02-13T06:25:44;98914.84;;;-0.32;75.75
52591;BME280;38483;42.620;25.394;2023-02-13T06:28:11;98919.63;;;-0.42;75.27
52591;BME280;38483;42.620;25.394;2023-02-13T06:30:38;98914.25;;;-0.53;76.59
52591;BME280;38483;42.620;25.394;2023-02-13T06:33:05;98916.34;;;-0.38;76.43
52591;BME280;38483;42.620;25.394;2023-02-13T06:35:33;98911.38;;;-0.34;76.34
52591;BME280;38483;42.620;25.394;2023-02-13T06:37:59;98921.50;;;-0.04;75.74
52591;BME280;38483;42.620;25.394;2023-02-13T06:40:26;98921.84;;;0.08;75.33
52591;BME280;38483;42.620;25.394;2023-02-13T06:42:53;98920.59;;;0.27;75.27
52591;BME280;38483;42.620;25.394;2023-02-13T06:45:20;98915.72;;;0.36;74.78
52591;BME280;38483;42.620;25.394;2023-02-13T06:47:47;98924.59;;;0.51;73.75
52591;BME280;38483;42.620;25.394;2023-02-13T06:50:15;98915.53;;;0.64;73.79
52591;BME280;38483;42.620;25.394;2023-02-13T06:52:47;98903.72;;;0.67;73.23
52591;BME280;38483;42.620;25.394;2023-02-13T06:55:15;98920.59;;;1.00;72.81
52591;BME280;38483;42.620;25.394;2023-02-13T06:57:43;98919.06;;;1.08;72.52
52591;BME280;38483;42.620;25.394;2023-02-13T07:00:11;98907.44;;;1.20;72.65
52591;BME280;38483;42.620;25.394;2023-02-13T07:02:40;98917.53;;;1.16;72.26
52591;BME280;38483;42.620;25.394;2023-02-13T07:05:08;98902.44;;;1.25;72.88
52591;BME280;38483;42.620;25.394;2023-02-13T07:07:37;98910.19;;;1.29;73.16
52591;BME280;38483;42.620;25.394;2023-02-13T07:10:06;98908.50;;;1.30;71.94
52591;BME280;38483;42.620;25.394;2023-02-13T07:12:34;98900.53;;;1.15;72.14
52591;BME280;38483;42.620;25.394;2023-02-13T07:15:03;98903.47;;;1.34;72.75
52591;BME280;38483;42.620;25.394;2023-02-13T07:17:31;98902.53;;;1.29;72.58
52591;BME280;38483;42.620;25.394;2023-02-13T07:19:58;98898.81;;;1.57;72.15
52591;BME280;38483;42.620;25.394;2023-02-13T07:22:25;98890.88;;;1.87;72.11
52591;BME280;38483;42.620;25.394;2023-02-13T07:24:51;98893.06;;;2.15;71.60
52591;BME280;38483;42.620;25.394;2023-02-13T07:27:18;98901.72;;;2.23;70.89
52591;BME280;38483;42.620;25.394;2023-02-13T07:29:45;98884.78;;;2.28;70.54
52591;BME280;38483;42.620;25.394;2023-02-13T07:32:12;98898.75;;;2.49;69.57
52591;BME280;38483;42.620;25.394;2023-02-13T07:34:39;98872.81;;;2.27;70.20
52591;BME280;38483;42.620;25.394;2023-02-13T07:37:27;98888.31;;;2.34;69.40
52591;BME280;38483;42.620;25.394;2023-02-13T07:39:54;98895.56;;;2.63;68.95
52591;BME280;38483;42.620;25.394;2023-02-13T07:42:24;98882.78;;;2.64;68.74
52591;BME280;38483;42.620;25.394;2023-02-13T07:44:50;98898.41;;;2.82;67.93
52591;BME280;38483;42.620;25.394;2023-02-13T07:47:17;98897.06;;;3.08;68.02
52591;BME280;38483;42.620;25.394;2023-02-13T07:49:46;98894.59;;;3.14;67.13
52591;BME280;38483;42.620;25.394;2023-02-13T07:52:13;98880.19;;;3.22;67.03
52591;BME280;38483;42.620;25.394;2023-02-13T07:54:40;98886.31;;;3.35;66.92
52591;BME280;38483;42.620;25.394;2023-02-13T07:57:14;98888.94;;;3.40;66.79
52591;BME280;38483;42.620;25.394;2023-02-13T07:59:41;98888.41;;;3.66;65.83
52591;BME280;38483;42.620;25.394;2023-02-13T08:02:12;98876.47;;;3.70;64.71
52591;BME280;38483;42.620;25.394;2023-02-13T08:04:42;98856.84;;;3.72;64.40
52591;BME280;38483;42.620;25.394;2023-02-13T08:07:13;98874.16;;;3.92;64.13
52591;BME280;38483;42.620;25.394;2023-02-13T08:09:43;98873.59;;;4.24;63.04
52591;BME280;38483;42.620;25.394;2023-02-13T08:12:30;98871.88;;;4.24;62.57
52591;BME280;38483;42.620;25.394;2023-02-13T08:14:58;98847.03;;;4.19;61.96
52591;BME280;38483;42.620;25.394;2023-02-13T08:17:25;98859.97;;;4.31;62.12
52591;BME280;38483;42.620;25.394;2023-02-13T08:19:52;98862.59;;;4.41;62.08
52591;BME280;38483;42.620;25.394;2023-02-13T08:22:19;98863.59;;;4.58;61.98
52591;BME280;38483;42.620;25.394;2023-02-13T08:24:46;98868.75;;;4.63;61.73
52591;BME280;38483;42.620;25.394;2023-02-13T08:27:13;98858.34;;;4.43;61.59
52591;BME280;38483;42.620;25.394;2023-02-13T08:29:41;98866.72;;;4.23;61.90
52591;BME280;38483;42.620;25.394;2023-02-13T08:32:08;98870.16;;;4.23;61.89
52591;BME280;38483;42.620;25.394;2023-02-13T08:34:35;98862.47;;;4.25;63.00
52591;BME280;38483;42.620;25.394;2023-02-13T08:37:02;98872.56;;;4.06;63.52
52591;BME280;38483;42.620;25.394;2023-02-13T08:39:29;98866.03;;;4.43;62.84
52591;BME280;38483;42.620;25.394;2023-02-13T08:41:56;98873.94;;;4.67;61.64
52591;BME280;38483;42.620;25.394;2023-02-13T08:44:24;98860.19;;;4.59;61.88
52591;BME280;38483;42.620;25.394;2023-02-13T08:46:51;98872.28;;;4.75;61.59
52591;BME280;38483;42.620;25.394;2023-02-13T08:49:18;98861.25;;;4.90;61.45
52591;BME280;38483;42.620;25.394;2023-02-13T08:51:45;98860.47;;;5.05;60.86
52591;BME280;38483;42.620;25.394;2023-02-13T08:54:12;98865.63;;;5.11;60.79
52591;BME280;38483;42.620;25.394;2023-02-13T08:56:40;98865.53;;;4.95;60.84
52591;BME280;38483;42.620;25.394;2023-02-13T08:59:07;98868.88;;;4.82;61.17
52591;BME280;38483;42.620;25.394;2023-02-13T09:01:34;98859.38;;;4.68;62.10
52591;BME280;38483;42.620;25.394;2023-02-13T09:04:02;98853.47;;;4.78;61.75
52591;BME280;38483;42.620;25.394;2023-02-13T09:06:29;98840.66;;;4.84;61.82
52591;BME280;38483;42.620;25.394;2023-02-13T09:08:56;98811.59;;;4.89;61.33
52591;BME280;38483;42.620;25.394;2023-02-13T09:11:24;98844.28;;;5.24;61.20
52591;BME280;38483;42.620;25.394;2023-02-13T09:13:52;98855.34;;;5.05;60.86
52591;BME280;38483;42.620;25.394;2023-02-13T09:16:22;98857.13;;;5.19;61.01
52591;BME280;38483;42.620;25.394;2023-02-13T09:18:49;98854.63;;;5.37;60.57
52591;BME280;38483;42.620;25.394;2023-02-13T09:21:19;98840.09;;;5.44;59.69
52591;BME280;38483;42.620;25.394;2023-02-13T09:23:46;98848.66;;;5.47;60.11
52591;BME280;38483;42.620;25.394;2023-02-13T09:26:14;98838.41;;;5.59;59.81
52591;BME280;38483;42.620;25.394;2023-02-13T09:28:41;98831.59;;;5.76;59.72
52591;BME280;38483;42.620;25.394;2023-02-13T09:31:15;98829.09;;;5.87;58.13
52591;BME280;38483;42.620;25.394;2023-02-13T09:33:44;98807.59;;;5.62;58.60
52591;BME280;38483;42.620;25.394;2023-02-13T09:36:14;98810.16;;;5.79;58.55
52591;BME280;38483;42.620;25.394;2023-02-13T09:38:42;98825.56;;;5.65;58.74
52591;BME280;38483;42.620;25.394;2023-02-13T09:41:25;98811.09;;;5.87;58.81
52591;BME280;38483;42.620;25.394;2023-02-13T09:46:39;98807.66;;;6.09;58.04
52591;BME280;38483;42.620;25.394;2023-02-13T09:49:10;98794.81;;;5.97;57.00
52591;BME280;38483;42.620;25.394;2023-02-13T09:51:40;98800.81;;;6.32;57.47
52591;BME280;38483;42.620;25.394;2023-02-13T09:54:14;98796.50;;;6.48;56.28
52591;BME280;38483;42.620;25.394;2023-02-13T09:57:02;98789.59;;;6.61;55.72
52591;BME280;38483;42.620;25.394;2023-02-13T10:19:12;98750.75;;;7.21;54.85
52591;BME280;38483;42.620;25.394;2023-02-13T10:21:43;98751.59;;;7.23;54.28
52591;BME280;38483;42.620;25.394;2023-02-13T10:24:43;98749.81;;;7.34;52.74
52591;BME280;38483;42.620;25.394;2023-02-13T10:30:22;98734.31;;;7.42;52.07
52591;BME280;38483;42.620;25.394;2023-02-13T10:32:56;98728.19;;;7.55;52.21
52591;BME280;38483;42.620;25.394;2023-02-13T10:35:52;98718.81;;;7.48;52.73
52591;BME280;38483;42.620;25.394;2023-02-13T10:38:24;98724.75;;;7.60;52.77
52591;BME280;38483;42.620;25.394;2023-02-13T10:43:52;98728.03;;;7.77;51.64
52591;BME280;38483;42.620;25.394;2023-02-13T10:52:46;98716.03;;;7.75;50.87
52591;BME280;38483;42.620;25.394;2023-02-13T10:55:05;98713.34;;;7.85;51.30
52591;BME280;38483;42.620;25.394;2023-02-13T11:03:25;98709.81;;;8.01;50.79
52591;BME280;38483;42.620;25.394;2023-02-13T11:05:53;98705.72;;;7.75;51.08
52591;BME280;38483;42.620;25.394;2023-02-13T11:08:38;98676.78;;;7.36;52.30
52591;BME280;38483;42.620;25.394;2023-02-13T11:11:29;98703.81;;;7.96;51.10
52591;BME280;38483;42.620;25.394;2023-02-13T11:16:54;98692.44;;;8.17;51.04
52591;BME280;38483;42.620;25.394;2023-02-13T11:21:56;98681.16;;;8.30;49.85
52591;BME280;38483;42.620;25.394;2023-02-13T11:24:26;98684.66;;;8.21;49.26
52591;BME280;38483;42.620;25.394;2023-02-13T11:27:02;98658.38;;;7.85;50.69
52591;BME280;38483;42.620;25.394;2023-02-13T11:29:36;98668.41;;;8.13;50.60
52591;BME280;38483;42.620;25.394;2023-02-13T11:34:33;98655.53;;;8.09;49.97
52591;BME280;38483;42.620;25.394;2023-02-13T11:39:45;98649.34;;;8.28;49.68
52591;BME280;38483;42.620;25.394;2023-02-13T11:42:23;98646.09;;;8.09;50.09
52591;BME280;38483;42.620;25.394;2023-02-13T11:44:54;98614.22;;;8.13;50.00
52591;BME280;38483;42.620;25.394;2023-02-13T11:47:36;98618.28;;;8.39;48.79
52591;BME280;38483;42.620;25.394;2023-02-13T11:50:05;98636.13;;;8.54;48.52
52591;BME280;38483;42.620;25.394;2023-02-13T11:52:34;98616.22;;;8.62;48.55
52591;BME280;38483;42.620;25.394;2023-02-13T11:55:05;98625.47;;;8.78;48.87
52591;BME280;38483;42.620;25.394;2023-02-13T11:58:24;98619.47;;;8.79;48.13
52591;BME280;38483;42.620;25.394;2023-02-13T12:01:22;98622.50;;;9.08;48.29
52591;BME280;38483;42.620;25.394;2023-02-13T12:04:00;98625.84;;;9.13;47.72
52591;BME280;38483;42.620;25.394;2023-02-13T12:06:28;98616.63;;;8.97;47.36
52591;BME280;38483;42.620;25.394;2023-02-13T12:08:56;98619.28;;;8.91;47.73
52591;BME280;38483;42.620;25.394;2023-02-13T12:11:47;98608.88;;;8.95;47.54
52591;BME280;38483;42.620;25.394;2023-02-13T12:14:29;98607.84;;;9.09;47.62
52591;BME280;38483;42.620;25.394;2023-02-13T12:19:50;98598.50;;;8.98;46.79
52591;BME280;38483;42.620;25.394;2023-02-13T12:23:05;98590.97;;;8.85;47.18
52591;BME280;38483;42.620;25.394;2023-02-13T12:31:33;98576.53;;;9.27;45.86
52591;BME280;38483;42.620;25.394;2023-02-13T12:39:38;98576.72;;;9.16;45.13
52591;BME280;38483;42.620;25.394;2023-02-13T12:45:01;98578.72;;;8.97;45.92
52591;BME280;38483;42.620;25.394;2023-02-13T12:50:31;98571.47;;;9.19;45.28
52591;BME280;38483;42.620;25.394;2023-02-13T13:05:13;98563.41;;;9.39;44.47
52591;BME280;38483;42.620;25.394;2023-02-13T13:13:38;98543.81;;;9.27;44.17
52591;BME280;38483;42.620;25.394;2023-02-13T13:27:14;98554.91;;;9.32;44.18
52591;BME280;38483;42.620;25.394;2023-02-13T13:29:47;98517.47;;;9.04;44.48
52591;BME280;38483;42.620;25.394;2023-02-13T13:32:19;98557.00;;;9.09;44.42
52591;BME280;38483;42.620;25.394;2023-02-13T13:34:47;98539.53;;;9.25;44.50
52591;BME280;38483;42.620;25.394;2023-02-13T13:37:34;98537.69;;;9.31;44.48
52591;BME280;38483;42.620;25.394;2023-02-13T13:43:01;98540.47;;;9.19;44.07
52591;BME280;38483;42.620;25.394;2023-02-13T13:48:42;98544.25;;;9.00;44.05
52591;BME280;38483;42.620;25.394;2023-02-13T13:51:16;98527.19;;;8.90;44.02
52591;BME280;38483;42.620;25.394;2023-02-13T14:05:01;98520.97;;;8.98;44.61
52591;BME280;38483;42.620;25.394;2023-02-13T14:07:37;98520.09;;;9.01;44.48
52591;BME280;38483;42.620;25.394;2023-02-13T14:26:08;98515.09;;;8.90;45.09
52591;BME280;38483;42.620;25.394;2023-02-13T14:28:35;98493.88;;;8.70;45.28
52591;BME280;38483;42.620;25.394;2023-02-13T14:31:08;98503.22;;;8.79;45.47
52591;BME280;38483;42.620;25.394;2023-02-13T14:33:42;98512.56;;;8.87;45.97
52591;BME280;38483;42.620;25.394;2023-02-13T14:36:20;98493.88;;;8.70;45.69
52591;BME280;38483;42.620;25.394;2023-02-13T14:39:01;98507.59;;;8.74;45.49
52591;BME280;38483;42.620;25.394;2023-02-13T14:44:48;98496.44;;;8.73;45.58
52591;BME280;38483;42.620;25.394;2023-02-13T14:47:32;98509.34;;;8.73;46.35
52591;BME280;38483;42.620;25.394;2023-02-13T14:50:03;98502.50;;;8.71;46.11
52591;BME280;38483;42.620;25.394;2023-02-13T14:52:37;98503.31;;;8.73;46.02
52591;BME280;38483;42.620;25.394;2023-02-13T14:55:30;98504.19;;;8.73;46.40
52591;BME280;38483;42.620;25.394;2023-02-13T14:58:17;98499.91;;;8.71;45.91
52591;BME280;38483;42.620;25.394;2023-02-13T15:00:51;98505.09;;;8.68;46.49
52591;BME280;38483;42.620;25.394;2023-02-13T15:03:47;98501.88;;;8.54;46.89
52591;BME280;38483;42.620;25.394;2023-02-13T15:06:39;98497.59;;;8.53;47.10
52591;BME280;38483;42.620;25.394;2023-02-13T15:09:40;98495.78;;;8.58;47.50
52591;BME280;38483;42.620;25.394;2023-02-13T15:12:26;98498.47;;;8.52;47.24
52591;BME280;38483;42.620;25.394;2023-02-13T15:14:54;98475.41;;;8.40;47.90
52591;BME280;38483;42.620;25.394;2023-02-13T15:17:39;98483.28;;;8.32;47.33
52591;BME280;38483;42.620;25.394;2023-02-13T15:20:22;98488.44;;;8.31;47.64
52591;BME280;38483;42.620;25.394;2023-02-13T15:22:51;98495.25;;;8.35;48.28
52591;BME280;38483;42.620;25.394;2023-02-13T15:25:28;98508.16;;;8.35;48.46
52591;BME280;38483;42.620;25.394;2023-02-13T15:27:58;98490.25;;;8.26;48.12
52591;BME280;38483;42.620;25.394;2023-02-13T15:30:30;98485.13;;;8.19;47.96
52591;BME280;38483;42.620;25.394;2023-02-13T15:33:00;98488.50;;;8.28;48.08
52591;BME280;38483;42.620;25.394;2023-02-13T15:35:32;98483.41;;;8.18;48.33
52591;BME280;38483;42.620;25.394;2023-02-13T15:38:19;98491.19;;;8.14;48.59
52591;BME280;38483;42.620;25.394;2023-02-13T15:40:49;98478.50;;;8.00;49.17
52591;BME280;38483;42.620;25.394;2023-02-13T15:43:25;98501.56;;;8.12;48.84
52591;BME280;38483;42.620;25.394;2023-02-13T15:45:55;98500.00;;;7.99;49.21
52591;BME280;38483;42.620;25.394;2023-02-13T15:48:24;98492.38;;;7.90;49.71
52591;BME280;38483;42.620;25.394;2023-02-13T15:50:51;98502.78;;;7.83;49.36
52591;BME280;38483;42.620;25.394;2023-02-13T15:53:18;98488.28;;;7.71;50.54
52591;BME280;38483;42.620;25.394;2023-02-13T15:56:00;98500.41;;;7.66;50.86
52591;BME280;38483;42.620;25.394;2023-02-13T15:58:30;98489.41;;;7.49;50.58
52591;BME280;38483;42.620;25.394;2023-02-13T16:01:16;98492.19;;;7.28;50.72
52591;BME280;38483;42.620;25.394;2023-02-13T16:03:46;98501.66;;;7.29;50.94
52591;BME280;38483;42.620;25.394;2023-02-13T16:06:15;98508.50;;;7.30;50.81
52591;BME280;38483;42.620;25.394;2023-02-13T16:09:02;98497.44;;;7.19;51.38
52591;BME280;38483;42.620;25.394;2023-02-13T16:11:40;98503.47;;;7.13;51.06
52591;BME280;38483;42.620;25.394;2023-02-13T16:14:21;98505.31;;;7.04;51.70